createdAt,value
2023-02-23T00:00:29.694Z,79.72
2023-02-23T00:03:18.795Z,79.66
2023-02-23T00:06:10.965Z,79.60
2023-02-23T00:08:55.667Z,79.88
2023-02-23T00:11:45.758Z,80.26
2023-02-23T00:14:38.686Z,80.15
2023-02-23T00:17:27.567Z,81.37
2023-02-23T00:20:19.727Z,80.42
2023-02-23T00:23:08.180Z,80.67
2023-02-23T00:25:53.696Z,79.98
2023-02-23T00:28:42.777Z,81.88
2023-02-23T00:31:28.824Z,78.02
2023-02-23T00:34:19.686Z,77.65
2023-02-23T00:37:09.706Z,78.50
2023-02-23T00:39:52.698Z,78.80
2023-02-23T00:42:36.891Z,79.58
2023-02-23T00:45:27.738Z,79.62
2023-02-23T00:48:18.694Z,79.92
2023-02-23T00:51:18.953Z,80.44
2023-02-23T00:54:02.162Z,80.51
2023-02-23T00:56:50.726Z,80.70
2023-02-23T00:59:39.016Z,81.08
2023-02-23T01:02:21.761Z,80.86
2023-02-23T01:05:09.996Z,81.45
2023-02-23T01:07:55.776Z,81.42
2023-02-23T01:10:54.097Z,80.98
2023-02-23T01:13:36.807Z,81.51
2023-02-23T01:16:28.997Z,81.36
2023-02-23T01:19:12.642Z,81.50
2023-02-23T01:21:56.832Z,81.45
2023-02-23T01:24:47.061Z,81.70
2023-02-23T01:27:28.900Z,81.79
2023-02-23T01:30:17.678Z,81.44
2023-02-23T01:32:59.863Z,81.20
2023-02-23T01:35:48.625Z,81.15
2023-02-23T01:38:30.893Z,81.15
2023-02-23T01:41:20.971Z,81.03
2023-02-23T01:44:16.147Z,80.76
2023-02-23T01:47:04.730Z,80.78
2023-02-23T01:49:52.954Z,81.03
2023-02-23T01:52:35.676Z,80.51
2023-02-23T01:55:25.338Z,80.50
2023-02-23T01:58:27.737Z,80.62
2023-02-23T02:01:16.846Z,80.66
2023-02-23T02:04:08.018Z,80.18
2023-02-23T02:07:01.702Z,81.47
2023-02-23T02:10:02.421Z,82.54
2023-02-23T02:12:59.785Z,79.33
2023-02-23T02:15:54.733Z,79.63
2023-02-23T02:19:13.690Z,79.05
2023-02-23T02:22:44.765Z,77.72
2023-02-23T02:25:58.178Z,76.09
2023-02-23T02:29:08.046Z,78.96
2023-02-23T02:32:30.003Z,72.80
2023-02-23T02:35:38.790Z,72.13
2023-02-23T02:39:00.916Z,73.63
2023-02-23T02:42:01.676Z,68.15
2023-02-23T02:45:05.705Z,66.50
2023-02-23T02:48:00.031Z,65.03
2023-02-23T02:50:57.714Z,67.63
2023-02-23T02:54:07.622Z,63.04
2023-02-23T02:57:02.742Z,59.79
2023-02-23T03:00:16.269Z,57.70
2023-02-23T03:03:23.613Z,55.98
2023-02-23T03:06:25.465Z,51.00
2023-02-23T03:10:01.729Z,50.71
2023-02-23T03:13:35.308Z,50.13
2023-02-23T03:16:48.679Z,48.13
2023-02-23T03:19:56.336Z,45.96
2023-02-23T03:23:21.693Z,43.69
2023-02-23T03:26:49.043Z,41.17
2023-02-23T03:30:04.006Z,42.84
2023-02-23T03:33:15.409Z,41.72
2023-02-23T03:36:45.675Z,40.23
2023-02-23T03:40:21.383Z,38.58
2023-02-23T03:43:25.655Z,36.38
2023-02-23T03:46:28.812Z,34.15
2023-02-23T03:49:42.717Z,36.54
2023-02-23T03:52:58.525Z,34.52
2023-02-23T03:56:03.645Z,35.73
2023-02-23T03:59:16.081Z,34.49
2023-02-23T04:02:19.737Z,35.62
2023-02-23T04:05:31.338Z,34.98
2023-02-23T04:08:37.624Z,33.93
2023-02-23T04:12:16.719Z,34.06
2023-02-23T04:15:07.888Z,34.63
2023-02-23T04:17:57.742Z,32.74
2023-02-23T04:20:40.967Z,32.77
2023-02-23T04:23:30.740Z,33.85
2023-02-23T04:26:12.992Z,32.59
2023-02-23T04:29:01.717Z,33.00
2023-02-23T04:31:44.030Z,33.28
2023-02-23T04:34:33.666Z,32.42
2023-02-23T04:37:29.582Z,31.84
2023-02-23T04:40:18.649Z,34.32
2023-02-23T04:43:02.137Z,33.55
2023-02-23T04:45:51.741Z,32.57
2023-02-23T04:48:33.914Z,33.22
2023-02-23T04:51:23.053Z,32.68
2023-02-23T04:54:05.983Z,33.81
2023-02-23T04:56:54.692Z,35.52
2023-02-23T04:59:37.257Z,34.52
2023-02-23T05:02:25.687Z,35.18
2023-02-23T05:05:08.708Z,34.29
2023-02-23T05:07:57.684Z,33.66
2023-02-23T05:10:40.462Z,35.61
2023-02-23T05:13:29.710Z,32.58
2023-02-23T05:16:13.031Z,32.86
2023-02-23T05:19:01.796Z,31.67
2023-02-23T05:21:44.047Z,33.63
2023-02-23T05:24:33.742Z,33.43
2023-02-23T05:27:18.883Z,31.27
2023-02-23T05:30:07.726Z,33.07
2023-02-23T05:32:50.401Z,34.61
2023-02-23T05:35:43.639Z,33.46
2023-02-23T05:38:33.110Z,33.30
2023-02-23T05:41:20.986Z,33.05
2023-02-23T05:44:10.130Z,32.23
2023-02-23T05:46:55.623Z,32.21
2023-02-23T05:49:49.026Z,33.79
2023-02-23T05:52:32.634Z,31.68
2023-02-23T05:55:21.082Z,31.58
2023-02-23T05:58:04.074Z,34.15
2023-02-23T06:00:53.495Z,31.53
2023-02-23T06:03:36.706Z,32.56
2023-02-23T06:06:26.744Z,30.17
2023-02-23T06:09:11.735Z,33.23
2023-02-23T06:12:01.854Z,32.82
2023-02-23T06:14:44.706Z,33.81
2023-02-23T06:17:33.992Z,33.83
2023-02-23T06:20:16.742Z,33.57
2023-02-23T06:23:04.960Z,32.96
2023-02-23T06:25:48.671Z,31.82
2023-02-23T06:28:37.990Z,31.50
2023-02-23T06:31:20.848Z,33.00
2023-02-23T06:34:09.001Z,32.29
2023-02-23T06:36:58.717Z,31.07
2023-02-23T06:39:41.054Z,31.14
2023-02-23T06:42:29.751Z,31.33
2023-02-23T06:45:13.236Z,33.04
2023-02-23T06:48:01.745Z,31.75
2023-02-23T06:50:44.648Z,33.77
2023-02-23T06:53:33.702Z,34.58
2023-02-23T06:56:16.528Z,33.56
2023-02-23T06:59:05.628Z,34.30
2023-02-23T07:01:48.061Z,32.22
2023-02-23T07:04:36.651Z,33.29
2023-02-23T07:07:19.952Z,33.31
2023-02-23T07:10:08.818Z,31.88
2023-02-23T07:12:51.053Z,32.63
2023-02-23T07:15:40.048Z,32.26
2023-02-23T07:18:21.899Z,33.02
2023-02-23T07:21:10.736Z,30.65
2023-02-23T07:23:53.125Z,33.16
2023-02-23T07:26:42.786Z,31.95
2023-02-23T07:29:25.990Z,31.77
2023-02-23T07:32:15.831Z,32.87
2023-02-23T07:34:57.943Z,30.28
2023-02-23T07:37:52.711Z,32.69
2023-02-23T07:40:40.988Z,31.76
2023-02-23T07:43:23.775Z,32.20
2023-02-23T07:46:11.998Z,31.09
2023-02-23T07:48:54.721Z,29.29
2023-02-23T07:51:43.999Z,30.20
2023-02-23T07:54:26.672Z,30.94
2023-02-23T07:57:16.097Z,31.96
2023-02-23T07:59:58.677Z,31.57
2023-02-23T08:02:47.889Z,32.27
2023-02-23T08:05:36.677Z,31.36
2023-02-23T08:08:24.936Z,28.98
2023-02-23T08:11:12.773Z,30.56
2023-02-23T08:14:04.097Z,29.28
2023-02-23T08:16:45.794Z,30.97
2023-02-23T08:19:35.674Z,31.08
2023-02-23T08:22:17.943Z,31.95
2023-02-23T08:25:07.061Z,32.34
2023-02-23T08:27:49.149Z,31.82
2023-02-23T08:30:37.808Z,32.57
2023-02-23T08:33:20.217Z,32.43
2023-02-23T08:36:11.730Z,32.08
2023-02-23T08:39:01.806Z,31.61
2023-02-23T08:41:44.599Z,31.95
2023-02-23T08:44:33.689Z,30.76
2023-02-23T08:47:17.704Z,30.94
2023-02-23T08:50:06.802Z,31.57
2023-02-23T08:52:49.046Z,30.77
2023-02-23T08:55:37.650Z,31.91
2023-02-23T08:58:19.918Z,31.49
2023-02-23T09:01:08.744Z,28.15
2023-02-23T09:03:50.918Z,32.42
2023-02-23T09:06:40.607Z,32.98
2023-02-23T09:09:22.962Z,31.88
2023-02-23T09:12:11.628Z,29.58
2023-02-23T09:14:54.830Z,30.47
2023-02-23T09:17:43.654Z,31.39
2023-02-23T09:20:28.033Z,32.34
2023-02-23T09:23:16.675Z,32.14
2023-02-23T09:25:58.926Z,32.27
2023-02-23T09:28:49.159Z,32.05
2023-02-23T09:31:32.507Z,31.06
2023-02-23T09:34:21.611Z,31.73
2023-02-23T09:37:18.554Z,31.51
2023-02-23T09:40:07.661Z,31.17
2023-02-23T09:43:13.011Z,30.73
2023-02-23T09:46:04.744Z,31.79
2023-02-23T09:48:48.033Z,31.84
2023-02-23T09:51:37.671Z,31.90
2023-02-23T09:54:22.918Z,32.92
2023-02-23T09:57:25.757Z,33.25
2023-02-23T10:00:12.254Z,32.42
2023-02-23T10:03:19.674Z,32.50
2023-02-23T10:06:13.921Z,33.21
2023-02-23T10:09:30.687Z,32.19
2023-02-23T10:12:22.049Z,33.02
2023-02-23T10:15:40.793Z,32.73
2023-02-23T10:18:46.999Z,33.07
2023-02-23T10:21:47.985Z,31.05
2023-02-23T10:24:36.603Z,30.13
2023-02-23T10:27:29.994Z,31.84
2023-02-23T10:30:20.969Z,30.07
2023-02-23T10:33:36.048Z,32.14
2023-02-23T10:36:27.673Z,33.24
2023-02-23T10:39:18.036Z,32.86
2023-02-23T10:42:01.677Z,32.01
2023-02-23T10:44:52.933Z,30.88
2023-02-23T10:47:42.618Z,31.89
2023-02-23T10:50:32.089Z,32.44
2023-02-23T10:53:33.735Z,30.83
2023-02-23T10:56:27.377Z,33.17
2023-02-23T10:59:10.660Z,31.68
2023-02-23T11:02:02.247Z,32.71
2023-02-23T11:04:45.037Z,31.58
2023-02-23T11:07:38.679Z,31.85
2023-02-23T11:10:36.129Z,32.84
2023-02-23T11:13:54.729Z,34.00
2023-02-23T11:16:45.932Z,34.46
2023-02-23T11:19:47.187Z,32.97
2023-02-23T11:22:28.969Z,32.94
2023-02-23T11:25:33.652Z,32.41
2023-02-23T11:28:31.322Z,33.21
2023-02-23T11:31:26.058Z,33.59
2023-02-23T11:34:07.944Z,35.01
2023-02-23T11:37:32.649Z,36.00
2023-02-23T11:40:38.964Z,36.61
2023-02-23T11:43:28.645Z,36.82
2023-02-23T11:46:10.972Z,37.00
2023-02-23T11:49:23.765Z,37.80
2023-02-23T11:52:23.056Z,38.23
2023-02-23T11:55:13.584Z,38.21
2023-02-23T11:58:33.707Z,38.46
2023-02-23T12:01:54.655Z,38.99
2023-02-23T12:04:46.641Z,38.66
2023-02-23T12:07:35.775Z,38.32
2023-02-23T12:10:30.650Z,37.95
2023-02-23T12:13:15.888Z,38.17
2023-02-23T12:16:11.635Z,38.57
2023-02-23T12:19:04.129Z,39.00
2023-02-23T12:22:05.711Z,39.87
2023-02-23T12:25:06.031Z,39.63
2023-02-23T12:28:19.767Z,39.70
2023-02-23T12:31:40.748Z,39.85
2023-02-23T12:34:46.722Z,41.19
2023-02-23T12:37:51.720Z,42.49
2023-02-23T12:40:47.070Z,43.26
2023-02-23T12:44:08.552Z,43.77
2023-02-23T12:47:02.660Z,44.58
2023-02-23T12:49:56.024Z,44.40
2023-02-23T12:53:14.658Z,43.98
2023-02-23T12:56:12.051Z,44.60
2023-02-23T12:59:24.643Z,45.49
2023-02-23T13:02:13.270Z,44.77
2023-02-23T13:05:30.694Z,44.76
2023-02-23T13:08:58.036Z,45.05
2023-02-23T13:12:08.746Z,46.14
2023-02-23T13:15:08.922Z,45.93
2023-02-23T13:17:59.702Z,46.45
2023-02-23T13:21:00.984Z,47.42
2023-02-23T13:23:55.624Z,47.53
2023-02-23T13:26:43.977Z,47.96
2023-02-23T13:29:53.715Z,48.65
2023-02-23T13:32:40.996Z,49.16
2023-02-23T13:35:29.648Z,49.35
2023-02-23T13:38:39.648Z,49.84
2023-02-23T13:42:08.672Z,49.65
2023-02-23T13:45:18.079Z,49.52
2023-02-23T13:48:03.666Z,50.87
2023-02-23T13:51:10.960Z,50.22
2023-02-23T13:54:07.626Z,51.13
2023-02-23T13:57:06.575Z,51.77
2023-02-23T13:59:53.653Z,51.20
2023-02-23T14:02:42.278Z,52.29
2023-02-23T14:05:33.742Z,52.14
2023-02-23T14:08:45.691Z,53.27
2023-02-23T14:12:01.640Z,53.68
2023-02-23T14:14:52.958Z,54.29
2023-02-23T14:17:43.658Z,54.41
2023-02-23T14:21:10.892Z,54.57
2023-02-23T14:23:55.783Z,55.60
2023-02-23T14:26:48.680Z,55.94
2023-02-23T14:29:41.672Z,55.76
2023-02-23T14:32:33.410Z,56.77
2023-02-23T14:35:41.699Z,56.43
2023-02-23T14:38:48.130Z,56.86
2023-02-23T14:41:33.724Z,57.48
2023-02-23T14:44:30.852Z,57.20
2023-02-23T14:47:16.775Z,57.48
2023-02-23T14:50:13.794Z,57.67
2023-02-23T14:52:56.699Z,58.72
2023-02-23T14:55:44.468Z,57.67
2023-02-23T14:58:36.659Z,58.09
2023-02-23T15:01:46.981Z,58.80
2023-02-23T15:04:34.646Z,58.86
2023-02-23T15:07:51.635Z,58.60
2023-02-23T15:10:41.920Z,59.59
2023-02-23T15:13:42.098Z,59.33
2023-02-23T15:16:39.711Z,59.04
2023-02-23T15:19:30.034Z,58.59
2023-02-23T15:22:13.703Z,59.35
2023-02-23T15:25:00.850Z,59.78
2023-02-23T15:27:56.699Z,60.57
2023-02-23T15:30:56.077Z,61.35
2023-02-23T15:33:38.688Z,61.24
2023-02-23T15:36:35.726Z,61.61
2023-02-23T15:39:28.953Z,62.57
2023-02-23T15:42:13.003Z,62.33
2023-02-23T15:45:10.595Z,62.78
2023-02-23T15:47:53.020Z,62.94
2023-02-23T15:50:51.672Z,62.89
2023-02-23T15:53:44.208Z,63.83
2023-02-23T15:56:38.703Z,63.26
2023-02-23T15:59:33.934Z,63.27
2023-02-23T16:02:21.186Z,64.00
2023-02-23T16:05:09.571Z,64.17
2023-02-23T16:08:07.303Z,63.06
2023-02-23T16:11:00.685Z,63.73
2023-02-23T16:13:55.182Z,64.31
2023-02-23T16:16:37.703Z,63.62
2023-02-23T16:19:28.923Z,64.07
2023-02-23T16:22:13.687Z,63.04
2023-02-23T16:25:08.890Z,63.90
2023-02-23T16:27:53.624Z,63.86
2023-02-23T16:31:17.817Z,63.85
2023-02-23T16:34:05.600Z,63.94
2023-02-23T16:36:53.857Z,64.56
2023-02-23T16:39:44.659Z,64.18
2023-02-23T16:42:39.879Z,63.24
2023-02-23T16:45:24.682Z,62.82
2023-02-23T16:48:14.042Z,64.12
2023-02-23T16:50:56.798Z,62.45
2023-02-23T16:53:45.092Z,63.17
2023-02-23T16:56:29.629Z,64.54
2023-02-23T16:59:23.073Z,62.71
2023-02-23T17:02:06.322Z,64.64
2023-02-23T17:04:59.953Z,62.20
2023-02-23T17:07:42.580Z,62.05
2023-02-23T17:10:27.783Z,61.79
2023-02-23T17:13:22.732Z,61.02
2023-02-23T17:16:13.924Z,60.68
2023-02-23T17:18:56.700Z,61.51
2023-02-23T17:21:44.920Z,60.70
2023-02-23T17:24:27.728Z,60.27
2023-02-23T17:27:10.297Z,60.75
2023-02-23T17:30:00.657Z,62.31
2023-02-23T17:32:43.130Z,59.96
2023-02-23T17:35:33.650Z,62.66
2023-02-23T17:38:29.443Z,59.84
2023-02-23T17:41:22.972Z,60.61
2023-02-23T17:44:06.821Z,61.56
2023-02-23T17:46:56.686Z,60.12
2023-02-23T17:49:39.025Z,61.68
2023-02-23T17:52:27.641Z,61.65
2023-02-23T17:55:12.887Z,60.91
2023-02-23T17:58:01.616Z,64.28
2023-02-23T18:00:44.188Z,61.23
2023-02-23T18:03:40.160Z,61.12
2023-02-23T18:06:23.182Z,61.95
2023-02-23T18:09:13.780Z,61.54
2023-02-23T18:11:57.669Z,63.08
2023-02-23T18:14:47.642Z,63.94
2023-02-23T18:17:30.300Z,62.41
2023-02-23T18:20:24.684Z,62.37
2023-02-23T18:23:07.139Z,63.25
2023-02-23T18:25:56.752Z,63.67
2023-02-23T18:28:42.180Z,63.99
2023-02-23T18:31:36.093Z,64.05
2023-02-23T18:34:18.923Z,64.37
2023-02-23T18:37:11.689Z,64.52
2023-02-23T18:40:02.025Z,65.02
2023-02-23T18:42:44.838Z,65.26
2023-02-23T18:45:35.110Z,65.33
2023-02-23T18:48:21.660Z,65.69
2023-02-23T18:51:15.677Z,66.74
2023-02-23T18:53:59.737Z,66.39
2023-02-23T18:56:49.089Z,66.68
2023-02-23T18:59:31.645Z,67.16
2023-02-23T19:02:20.716Z,67.08
2023-02-23T19:05:04.124Z,67.53
2023-02-23T19:07:52.581Z,67.43
2023-02-23T19:10:35.083Z,66.97
2023-02-23T19:13:25.658Z,67.15
2023-02-23T19:16:13.035Z,67.30
2023-02-23T19:19:01.616Z,67.31
2023-02-23T19:21:44.044Z,67.44
2023-02-23T19:24:33.868Z,67.87
2023-02-23T19:27:18.040Z,68.14
2023-02-23T19:30:06.708Z,67.15
2023-02-23T19:32:50.295Z,67.39
2023-02-23T19:35:39.647Z,67.00
2023-02-23T19:38:21.897Z,67.09
2023-02-23T19:41:14.992Z,66.24
2023-02-23T19:43:57.259Z,66.43
2023-02-23T19:46:47.678Z,66.54
2023-02-23T19:49:29.932Z,66.37
2023-02-23T19:52:18.536Z,66.45
2023-02-23T19:55:01.000Z,65.88
2023-02-23T19:57:49.594Z,66.27
2023-02-23T20:00:32.049Z,66.85
2023-02-23T20:03:21.682Z,66.44
2023-02-23T20:06:05.046Z,66.71
2023-02-23T20:08:54.586Z,66.43
2023-02-23T20:11:38.068Z,66.49
2023-02-23T20:14:26.715Z,66.82
2023-02-23T20:17:10.139Z,66.47
2023-02-23T20:19:58.741Z,66.94
2023-02-23T20:22:42.380Z,66.61
2023-02-23T20:25:32.549Z,67.32
2023-02-23T20:28:14.946Z,67.02
2023-02-23T20:31:03.769Z,67.45
2023-02-23T20:33:46.006Z,67.39
2023-02-23T20:36:35.634Z,67.27
2023-02-23T20:39:25.443Z,67.50
2023-02-23T20:42:08.592Z,67.25
2023-02-23T20:44:58.056Z,67.59
2023-02-23T20:47:40.631Z,68.24
2023-02-23T20:50:34.332Z,68.02
2023-02-23T20:53:16.590Z,70.16
2023-02-23T20:56:05.582Z,68.36
2023-02-23T20:58:47.963Z,68.62
2023-02-23T21:01:39.565Z,68.63
2023-02-23T21:04:22.063Z,68.72
2023-02-23T21:07:14.686Z,68.58
2023-02-23T21:09:56.937Z,68.35
2023-02-23T21:12:45.602Z,68.32
2023-02-23T21:15:34.642Z,68.46
2023-02-23T21:18:16.740Z,68.24
2023-02-23T21:21:06.593Z,68.13
2023-02-23T21:23:54.817Z,68.50
2023-02-23T21:26:38.582Z,68.62
2023-02-23T21:29:24.749Z,68.85
2023-02-23T21:32:15.728Z,69.22
2023-02-23T21:35:04.891Z,69.15
2023-02-23T21:37:48.654Z,68.98
2023-02-23T21:40:43.134Z,69.05
2023-02-23T21:43:25.936Z,68.73
2023-02-23T21:46:24.968Z,68.73
2023-02-23T21:49:07.579Z,69.37
2023-02-23T21:51:56.525Z,69.27
2023-02-23T21:54:45.497Z,69.86
2023-02-23T21:57:35.602Z,70.65
2023-02-23T22:00:20.045Z,69.91
2023-02-23T22:03:08.626Z,70.38
2023-02-23T22:05:51.024Z,70.40
2023-02-23T22:08:40.007Z,70.50
2023-02-23T22:11:25.818Z,70.97
2023-02-23T22:14:14.894Z,70.38
2023-02-23T22:16:56.842Z,70.43
2023-02-23T22:19:45.636Z,70.03
2023-02-23T22:22:34.577Z,70.05
2023-02-23T22:25:29.646Z,69.53
2023-02-23T22:28:17.967Z,69.51
2023-02-23T22:31:00.635Z,69.80
2023-02-23T22:33:44.820Z,70.25
2023-02-23T22:36:33.668Z,70.23
2023-02-23T22:39:29.395Z,70.64
2023-02-23T22:42:20.522Z,70.96
2023-02-23T22:45:07.217Z,71.22
2023-02-23T22:47:56.604Z,70.89
2023-02-23T22:50:38.931Z,71.33
2023-02-23T22:53:27.585Z,70.94
2023-02-23T22:56:09.875Z,71.47
2023-02-23T22:59:01.706Z,71.49
2023-02-23T23:01:45.911Z,71.63
2023-02-23T23:04:34.703Z,71.78
2023-02-23T23:07:23.652Z,71.88
2023-02-23T23:10:06.706Z,72.47
2023-02-23T23:12:56.634Z,72.82
2023-02-23T23:15:44.843Z,72.28
2023-02-23T23:18:28.523Z,72.88
2023-02-23T23:21:22.935Z,71.97
2023-02-23T23:24:07.591Z,72.59
2023-02-23T23:27:01.255Z,72.84
2023-02-23T23:29:45.613Z,72.31
2023-02-23T23:32:34.565Z,72.20
2023-02-23T23:35:21.533Z,72.49
2023-02-23T23:38:04.105Z,73.37
2023-02-23T23:40:54.575Z,73.30
2023-02-23T23:43:47.296Z,73.50
2023-02-23T23:46:36.598Z,73.40
2023-02-23T23:49:27.821Z,73.63
2023-02-23T23:52:10.583Z,73.83
2023-02-23T23:54:59.816Z,73.61
2023-02-23T23:57:42.592Z,73.85
